This is the latest recevied weather packets stored in our database for station/object BMCB-22. If no packets are shown the sender has not sent any weather packets the latest 10 day(s).
| Time | Temp. | Humidity | Pressure | Rain* | Wind** | Luminosity | Snow |
|---|---|---|---|---|---|---|---|
| 1777329661 | 10° C | 56% | 1020.2 hPa | 0 mm | - | 0 W/m² | - |
| 1777324264 | 10° C | 56% | 1020.3 hPa | 0 mm | - | 0 W/m² | - |
| 1777321865 | 10.56° C | 57% | 1020.6 hPa | 0 mm | - | 0 W/m² | - |
| 1777320677 | 10.56° C | 57% | 1020.6 hPa | 0 mm | - | 0 W/m² | - |
| 1777315861 | 12.22° C | 48% | 1020.4 hPa | 0 mm | - | 6 W/m² | - |
| 1777314057 | 12.78° C | 47% | 1020.3 hPa | 0 mm | - | 28 W/m² | - |
| 1777311658 | 13.33° C | 46% | 1020.3 hPa | 0 mm | - | 72 W/m² | - |
| 1777309860 | 14.44° C | 46% | 1020.1 hPa | 0 mm | - | 126 W/m² | - |
| 1777307458 | 15° C | 45% | 1020.1 hPa | 0 mm | - | 236 W/m² | - |
| 1777306260 | 15.56° C | 44% | 1020 hPa | 0 mm | - | 346 W/m² | - |
| 1777296659 | 16.11° C | 44% | 1021.2 hPa | 0 mm | - | 674 W/m² | - |
| 1777289457 | 14.44° C | 47% | 1022.4 hPa | 0 mm | - | 456 W/m² | - |
| 1777287658 | 15° C | 34% | 1022.3 hPa | 0 mm | - | 652 W/m² | - |
| 1777285256 | 13.89° C | 40% | 1022.8 hPa | 0 mm | - | 684 W/m² | - |
| 1777279259 | 11.67° C | 54% | 1023.5 hPa | 0 mm | - | 472 W/m² | - |
| 1777278054 | 10.56° C | 52% | 1023.6 hPa | 0 mm | - | 482 W/m² | - |
| 1777272055 | 10° C | 57% | 1023.9 hPa | 0 mm | - | 246 W/m² | - |
| 1777269057 | 8.89° C | 54% | 1024.3 hPa | 0 mm | - | 80 W/m² | - |
| 1777266055 | 7.22° C | 55% | 1024.1 hPa | 0 mm | - | 16 W/m² | - |
| 1777264856 | 7.22° C | 54% | 1024.1 hPa | 0 mm | - | 8 W/m² | - |
| 1777263057 | 7.78° C | 54% | 1024 hPa | 0 mm | - | 0 W/m² | - |
| 1777260657 | 7.78° C | 53% | 1024.1 hPa | 0 mm | - | 0 W/m² | - |
| 1777258857 | 7.78° C | 53% | 1024.1 hPa | 0 mm | - | 0 W/m² | - |
| 1777256454 | 7.78° C | 53% | 1024.1 hPa | 0 mm | - | 0 W/m² | - |
| 1777250455 | 8.33° C | 51% | 1024.3 hPa | 0 mm | - | 0 W/m² | - |
* Rain latest hour (hover to see other rain measurements)
** Current wind speed in m/s (hover to see current wind gust speed)